Time;durP1;ratioP1;P1;durP2;ratioP2;P2;SDS_P1;SDS_P2;PMS_P1;PMS_P2;Temp;Humidity;BMP_temperature;BMP_pressure;BME280_temperature;BME280_humidity;BME280_pressure;Samples;Min_cycle;Max_cycle;Signal;HPM_P1;HPM_P2
2023/07/31 00:00:38;;;;;;;5.60;4.18;;;15.90;99.90;;;;;;4981429;28;20049;-87
2023/07/31 00:03:04;;;;;;;6.28;4.20;;;;;;;;;;5001426;28;20037;-88
2023/07/31 00:05:30;;;;;;;6.10;3.90;;;;;;;;;;4977313;28;20042;-88
2023/07/31 00:07:56;;;;;;;8.48;4.50;;;;;;;;;;4991092;28;20401;-88
2023/07/31 00:10:22;;;;;;;6.15;4.10;;;;;;;;;;4991570;28;20069;-88
2023/07/31 00:12:48;;;;;;;7.15;3.58;;;;;;;;;;5006619;28;20543;-87
2023/07/31 00:15:15;;;;;;;7.38;4.47;;;16.00;99.90;;;;;;4988189;28;20041;-87
2023/07/31 00:17:41;;;;;;;11.00;4.50;;;;;;;;;;4981019;28;20575;-87
2023/07/31 00:20:07;;;;;;;5.85;4.45;;;;;;;;;;5001075;28;20033;-88
2023/07/31 00:22:33;;;;;;;8.43;4.28;;;;;;;;;;4997644;28;20049;-88
2023/07/31 00:24:59;;;;;;;6.32;3.92;;;;;;;;;;5002038;28;20042;-87
2023/07/31 00:27:25;;;;;;;5.65;3.97;;;;;;;;;;5003605;28;20171;-87
2023/07/31 00:29:51;;;;;;;5.07;4.13;;;;;;;;;;5003584;28;20049;-87
2023/07/31 00:32:17;;;;;;;7.65;4.38;;;;;;;;;;5001879;28;20044;-87
2023/07/31 00:34:43;;;;;;;5.10;3.53;;;;;;;;;;4984493;28;20045;-87
2023/07/31 00:37:09;;;;;;;7.18;3.28;;;;;;;;;;5018477;28;20492;-87
2023/07/31 00:39:35;;;;;;;4.30;2.80;;;;;;;;;;4993677;28;20042;-87
2023/07/31 00:42:02;;;;;;;3.17;2.55;;;;;;;;;;4998369;28;20049;-87
2023/07/31 00:44:28;;;;;;;7.72;2.78;;;;;;;;;;4998121;28;20042;-87
2023/07/31 00:46:54;;;;;;;2.70;2.10;;;;;;;;;;5007874;28;20414;-87
2023/07/31 00:49:21;;;;;;;3.50;1.90;;;;;;;;;;5023406;28;20052;-87
2023/07/31 00:51:47;;;;;;;2.33;1.35;;;;;;;;;;5002800;28;20050;-87
2023/07/31 00:54:13;;;;;;;1.83;1.20;;;;;;;;;;5019748;28;20136;-87
2023/07/31 00:56:39;;;;;;;2.15;1.45;;;;;;;;;;4985639;28;20191;-87
2023/07/31 00:59:05;;;;;;;1.25;0.95;;;;;;;;;;5004201;28;20049;-87
2023/07/31 01:01:31;;;;;;;2.70;1.02;;;;;;;;;;4996116;28;20163;-86
2023/07/31 01:03:57;;;;;;;1.95;0.95;;;;;;;;;;5011509;28;20042;-87
2023/07/31 01:06:49;;;;;;;3.67;1.40;;;15.70;99.90;;;;;;5019733;28;20038;-87
2023/07/31 01:09:20;;;;;;;3.50;1.40;;;15.50;99.90;;;;;;5001431;28;20069;-87
2023/07/31 01:11:56;;;;;;;2.20;1.17;;;15.60;99.90;;;;;;4983714;28;20341;-87
2023/07/31 01:14:22;;;;;;;1.77;1.10;;;;;;;;;;4999534;28;20495;-87
2023/07/31 01:16:48;;;;;;;2.80;0.90;;;;;;;;;;5001270;28;20096;-87
2023/07/31 01:19:17;;;;;;;1.63;0.95;;;15.70;99.90;;;;;;5005167;28;20087;-87
2023/07/31 01:21:57;;;;;;;1.20;1.00;;;15.40;99.90;;;;;;5007527;28;20103;-87
2023/07/31 01:24:37;;;;;;;4.05;1.10;;;15.50;99.90;;;;;;5006319;28;20041;-87
2023/07/31 01:27:24;;;;;;;2.65;1.00;;;15.40;99.90;;;;;;4987498;28;20803;-87
2023/07/31 01:30:00;;;;;;;1.77;0.77;;;15.50;99.90;;;;;;4991999;28;20460;-87
2023/07/31 01:32:28;;;;;;;2.60;1.02;;;15.60;99.90;;;;;;5008869;28;20053;-87
2023/07/31 01:34:54;;;;;;;0.90;0.65;;;;;;;;;;5007646;28;20046;-87
2023/07/31 01:37:20;;;;;;;0.80;0.50;;;;;;;;;;4992089;28;20403;-88
2023/07/31 01:39:46;;;;;;;2.70;0.63;;;;;;;;;;4990070;28;20057;-87
2023/07/31 01:42:12;;;;;;;0.60;0.50;;;;;;;;;;5003963;28;20124;-87
2023/07/31 01:44:38;;;;;;;0.75;0.60;;;;;;;;;;5021679;28;20132;-87
2023/07/31 01:47:04;;;;;;;1.73;0.50;;;15.50;99.90;;;;;;5004481;28;20329;-87
2023/07/31 01:49:30;;;;;;;1.30;0.50;;;;;;;;;;5001256;28;20080;-87
2023/07/31 01:51:56;;;;;;;5.80;0.70;;;;;;;;;;5007151;28;20119;-87
2023/07/31 01:54:22;;;;;;;0.93;0.68;;;;;;;;;;4992283;28;20033;-86
2023/07/31 01:56:48;;;;;;;1.30;0.63;;;;;;;;;;4989055;28;20060;-86
2023/07/31 01:59:14;;;;;;;0.63;0.40;;;;;;;;;;4989354;28;20053;-87
2023/07/31 02:01:40;;;;;;;2.03;0.57;;;;;;;;;;4988478;28;20041;-87
2023/07/31 02:04:06;;;;;;;1.23;0.70;;;;;;;;;;5005456;28;20052;-87
2023/07/31 02:06:32;;;;;;;1.30;0.57;;;;;;;;;;4985169;28;20124;-87
2023/07/31 02:08:58;;;;;;;2.72;0.40;;;;;;;;;;5011991;28;20124;-87
2023/07/31 02:11:24;;;;;;;2.10;0.50;;;;;;;;;;5009398;28;20463;-88
2023/07/31 02:13:50;;;;;;;1.58;0.60;;;;;;;;;;5005710;28;20041;-87
2023/07/31 02:16:16;;;;;;;1.00;0.60;;;;;;;;;;5003025;28;20040;-87
2023/07/31 02:18:42;;;;;;;1.08;0.70;;;;;;;;;;5004269;28;20034;-86
2023/07/31 02:21:08;;;;;;;0.75;0.57;;;;;;;;;;5007068;28;20046;-87
2023/07/31 02:23:33;;;;;;;2.55;0.60;;;15.80;99.90;;;;;;4985866;28;20829;-87
2023/07/31 02:25:59;;;;;;;2.30;0.90;;;;;;;;;;5005788;28;20037;-87
2023/07/31 02:28:25;;;;;;;1.00;0.77;;;;;;;;;;4992787;28;20050;-87
2023/07/31 02:30:52;;;;;;;3.53;0.90;;;;;;;;;;4987568;28;20077;-87
2023/07/31 02:33:18;;;;;;;2.60;0.98;;;;;;;;;;5009125;28;20107;-86
2023/07/31 02:35:44;;;;;;;2.58;0.70;;;;;;;;;;5003287;28;20033;-87
2023/07/31 02:38:10;;;;;;;2.55;0.88;;;;;;;;;;5010402;28;20041;-87
2023/07/31 02:40:36;;;;;;;2.38;0.80;;;;;;;;;;5003945;28;20128;-87
2023/07/31 02:43:02;;;;;;;1.95;1.00;;;;;;;;;;5007806;28;20041;-87
2023/07/31 02:45:28;;;;;;;1.92;0.80;;;;;;;;;;5004843;28;20573;-87
2023/07/31 02:47:54;;;;;;;2.40;0.77;;;;;;;;;;4991605;28;20045;-87
2023/07/31 02:50:20;;;;;;;2.35;0.93;;;;;;;;;;5001422;28;20041;-87
2023/07/31 02:52:46;;;;;;;2.17;0.70;;;;;;;;;;5007805;28;20651;-87
2023/07/31 02:55:12;;;;;;;3.00;1.25;;;;;;;;;;4994364;28;20052;-87
2023/07/31 02:57:38;;;;;;;3.78;1.20;;;;;;;;;;4989334;28;20727;-87
2023/07/31 03:00:06;;;;;;;1.70;0.98;;;15.70;99.90;;;;;;5004744;28;20092;-86
2023/07/31 03:02:32;;;;;;;1.73;1.00;;;;;;;;;;4988279;28;20029;-87
2023/07/31 03:04:58;;;;;;;1.40;0.70;;;;;;;;;;5004722;28;20463;-87
2023/07/31 03:07:23;;;;;;;3.22;1.70;;;15.60;99.90;;;;;;5007280;28;20095;-87
2023/07/31 03:09:49;;;;;;;1.35;0.70;;;15.70;99.90;;;;;;5005035;28;20052;-87
2023/07/31 03:12:15;;;;;;;1.67;0.65;;;15.70;99.90;;;;;;4986689;28;20049;-87
2023/07/31 03:14:41;;;;;;;2.75;0.88;;;;;;;;;;4987297;28;20077;-87
2023/07/31 03:17:07;;;;;;;2.63;0.70;;;;;;;;;;5001561;28;20037;-87
2023/07/31 03:19:33;;;;;;;1.77;0.98;;;;;;;;;;4997379;28;20467;-87
2023/07/31 03:21:59;;;;;;;1.48;0.70;;;15.70;99.90;;;;;;4991375;28;20139;-85
2023/07/31 03:24:25;;;;;;;1.02;0.40;;;;;;;;;;5001973;28;20041;-87
2023/07/31 03:26:52;;;;;;;0.95;0.60;;;;;;;;;;4992747;28;20045;-87
2023/07/31 03:29:17;;;;;;;2.15;0.75;;;;;;;;;;5004598;28;20041;-87
2023/07/31 03:31:43;;;;;;;1.83;0.70;;;;;;;;;;4989273;28;20045;-87
2023/07/31 03:34:09;;;;;;;1.10;0.80;;;;;;;;;;5000402;28;20492;-87
2023/07/31 03:36:35;;;;;;;2.10;0.75;;;;;;;;;;5008199;28;20056;-87
2023/07/31 03:39:01;;;;;;;1.58;0.50;;;;;;;;;;4994387;28;20566;-88
2023/07/31 03:41:27;;;;;;;0.80;0.60;;;;;;;;;;4990834;28;20041;-88
2023/07/31 03:43:55;;;;;;;1.70;0.60;;;;;;;;;;5003893;28;20593;-88
2023/07/31 03:46:21;;;;;;;3.78;0.70;;;;;;;;;;5003124;28;20510;-88
2023/07/31 03:48:47;;;;;;;1.55;0.47;;;;;;;;;;5004606;28;20038;-88
2023/07/31 03:51:13;;;;;;;1.65;0.63;;;;;;;;;;5002609;28;20348;-88
2023/07/31 03:53:39;;;;;;;1.33;0.82;;;;;;;;;;5018799;28;20045;-87
2023/07/31 03:56:05;;;;;;;0.82;0.60;;;;;;;;;;4988911;28;20068;-88
2023/07/31 03:58:31;;;;;;;1.45;0.65;;;;;;;;;;5004759;28;20111;-88
2023/07/31 04:00:57;;;;;;;1.17;0.60;;;;;;;;;;5000575;28;20053;-87
2023/07/31 04:03:23;;;;;;;0.93;0.50;;;;;;;;;;5008779;28;20045;-88
2023/07/31 04:05:49;;;;;;;1.52;0.60;;;;;;;;;;4981498;28;20053;-86
2023/07/31 04:08:15;;;;;;;1.48;0.77;;;;;;;;;;5024151;28;20434;-88
2023/07/31 04:10:41;;;;;;;2.75;1.60;;;;;;;;;;5024627;28;20471;-88
2023/07/31 04:13:07;;;;;;;2.35;0.70;;;;;;;;;;5002394;28;20049;-88
2023/07/31 04:15:33;;;;;;;2.17;0.75;;;;;;;;;;5024907;28;20491;-88
2023/07/31 04:17:59;;;;;;;2.78;0.80;;;;;;;;;;5001347;28;20085;-88
2023/07/31 04:20:25;;;;;;;2.83;0.95;;;;;;;;;;5022243;28;20083;-87
2023/07/31 04:22:51;;;;;;;6.63;1.58;;;;;;;;;;5004393;28;20045;-87
2023/07/31 04:25:17;;;;;;;7.05;2.00;;;;;;;;;;5015532;28;20081;-87
2023/07/31 04:27:43;;;;;;;6.55;2.47;;;;;;;;;;5002415;28;20037;-88
2023/07/31 04:30:09;;;;;;;6.50;2.67;;;15.80;99.90;;;;;;5018663;28;20075;-88
2023/07/31 04:32:35;;;;;;;8.10;3.50;;;;;;;;;;5006580;28;20127;-87
2023/07/31 04:35:01;;;;;;;9.05;4.03;;;;;;;;;;4987535;28;20044;-86
2023/07/31 04:37:27;;;;;;;12.98;4.68;;;;;;;;;;4983145;28;20400;-88
2023/07/31 04:39:53;;;;;;;14.00;5.57;;;;;;;;;;4987096;28;20037;-87
2023/07/31 04:42:19;;;;;;;21.77;6.07;;;;;;;;;;4990511;28;20375;-88
2023/07/31 04:44:45;;;;;;;17.38;7.20;;;;;;;;;;5021853;28;20048;-88
2023/07/31 04:47:11;;;;;;;20.60;6.50;;;;;;;;;;5001894;28;20049;-88
2023/07/31 04:49:36;;;;;;;22.98;7.53;;;16.20;99.90;;;;;;5004189;28;20045;-87
2023/07/31 04:52:02;;;;;;;25.40;7.68;;;16.30;99.90;;;;;;5005241;28;20175;-88
2023/07/31 04:54:28;;;;;;;24.48;6.82;;;;;;;;;;5007528;28;20033;-88
2023/07/31 04:56:55;;;;;;;32.38;9.30;;;;;;;;;;5007723;28;20057;-88
2023/07/31 04:59:21;;;;;;;22.40;7.28;;;;;;;;;;5009723;28;20056;-87
2023/07/31 05:01:46;;;;;;;28.02;7.32;;;;;;;;;;5007781;28;20411;-88
2023/07/31 05:04:14;;;;;;;22.80;7.47;;;16.30;99.90;;;;;;4993018;28;20094;-89
2023/07/31 05:06:40;;;;;;;22.40;7.70;;;;;;;;;;5023208;28;20103;-89
2023/07/31 05:09:06;;;;;;;27.73;8.18;;;;;;;;;;4983496;28;20050;-86
2023/07/31 05:11:32;;;;;;;27.08;8.10;;;;;;;;;;5000999;28;20053;-88
2023/07/31 05:13:58;;;;;;;25.63;8.02;;;;;;;;;;5009069;28;20049;-88
2023/07/31 05:16:23;;;;;;;25.92;7.18;;;16.40;99.90;;;;;;4994039;28;20037;-88
2023/07/31 05:18:49;;;;;;;26.05;7.00;;;;;;;;;;5027122;28;20037;-88
2023/07/31 05:21:15;;;;;;;25.90;7.30;;;;;;;;;;4993128;28;20049;-88
2023/07/31 05:23:41;;;;;;;22.88;7.45;;;;;;;;;;5010365;28;20495;-87
2023/07/31 05:26:09;;;;;;;26.05;7.43;;;;;;;;;;4992631;28;20077;-87
2023/07/31 05:28:35;;;;;;;28.00;7.93;;;;;;;;;;5003769;28;20563;-89
2023/07/31 05:31:02;;;;;;;22.05;6.43;;;;;;;;;;5004987;28;20049;-87
2023/07/31 05:33:28;;;;;;;24.30;7.22;;;;;;;;;;4993716;28;20044;-88
2023/07/31 05:35:54;;;;;;;24.30;7.75;;;;;;;;;;5002790;28;20088;-88
2023/07/31 05:38:20;;;;;;;24.90;7.28;;;;;;;;;;5001936;28;20124;-88
2023/07/31 05:40:46;;;;;;;23.40;7.50;;;;;;;;;;4979786;28;20046;-88
2023/07/31 05:43:12;;;;;;;33.58;7.75;;;;;;;;;;5000468;28;20037;-89
2023/07/31 05:45:38;;;;;;;20.38;7.10;;;16.60;99.90;;;;;;5004726;28;20510;-88
2023/07/31 05:48:03;;;;;;;22.05;7.25;;;17.90;99.90;;;;;;5004572;28;20049;-88
2023/07/31 05:50:30;;;;;;;27.88;7.85;;;16.60;99.90;;;;;;5006539;28;20581;-88
2023/07/31 05:52:56;;;;;;;21.48;7.28;;;;;;;;;;5003922;28;20434;-88
2023/07/31 05:55:23;;;;;;;19.75;7.85;;;;;;;;;;4989583;28;20033;-87
2023/07/31 05:57:49;;;;;;;23.80;8.02;;;;;;;;;;4989262;28;20089;-88
2023/07/31 06:00:15;;;;;;;29.83;7.10;;;;;;;;;;5010119;28;20049;-89
2023/07/31 06:02:41;;;;;;;31.27;9.50;;;;;;;;;;5004291;28;20041;-87
2023/07/31 06:05:07;;;;;;;21.35;6.65;;;16.70;99.90;;;;;;4992306;28;20049;-88
2023/07/31 06:07:33;;;;;;;22.98;7.20;;;;;;;;;;5010257;28;20059;-88
2023/07/31 06:10:04;;;;;;;24.23;7.13;;;;;;;;;;5008359;28;20046;-88
2023/07/31 06:12:30;;;;;;;24.60;7.75;;;;;;;;;;5002149;28;20054;-88
2023/07/31 06:14:56;;;;;;;24.98;6.70;;;;;;;;;;5005844;28;20042;-87
2023/07/31 06:17:23;;;;;;;20.40;6.43;;;;;;;;;;5009973;28;20038;-88
2023/07/31 06:19:49;;;;;;;22.45;6.28;;;16.70;99.90;;;;;;5000574;28;20038;-88
2023/07/31 06:22:15;;;;;;;24.90;6.45;;;;;;;;;;4986291;28;20394;-88
2023/07/31 06:24:41;;;;;;;19.40;7.30;;;;;;;;;;5007097;28;20503;-88
2023/07/31 06:27:07;;;;;;;24.40;6.63;;;;;;;;;;4979830;28;20091;-88
2023/07/31 06:29:33;;;;;;;22.33;6.82;;;;;;;;;;5023104;28;20049;-88
2023/07/31 06:31:59;;;;;;;25.75;7.60;;;;;;;;;;5021492;28;20046;-88
2023/07/31 06:34:25;;;;;;;25.58;7.50;;;;;;;;;;5005761;28;20041;-87
2023/07/31 06:36:51;;;;;;;23.63;7.40;;;;;;;;;;5007329;28;20491;-88
2023/07/31 06:39:17;;;;;;;27.63;6.78;;;;;;;;;;4980336;28;20065;-87
2023/07/31 06:41:44;;;;;;;28.27;7.63;;;16.90;99.90;;;;;;5003924;28;20114;-87
2023/07/31 06:44:10;;;;;;;27.52;8.10;;;;;;;;;;5004218;28;20034;-88
2023/07/31 06:46:36;;;;;;;22.10;6.97;;;;;;;;;;5005365;28;20400;-87
2023/07/31 06:49:02;;;;;;;23.30;6.63;;;;;;;;;;5025443;28;20043;-87
2023/07/31 06:51:31;;;;;;;19.35;5.80;;;;;;;;;;5004371;28;20033;-86
2023/07/31 06:53:57;;;;;;;17.30;6.30;;;;;;;;;;5003049;28;20046;-88
2023/07/31 06:56:23;;;;;;;29.35;6.00;;;;;;;;;;5007743;28;20099;-87
2023/07/31 06:58:49;;;;;;;14.68;5.07;;;;;;;;;;5007194;28;20067;-87
2023/07/31 07:01:15;;;;;;;10.13;3.85;;;;;;;;;;4999653;28;20128;-88
2023/07/31 07:03:40;;;;;;;10.63;3.50;;;;;;;;;;5004389;28;20108;-88
2023/07/31 07:06:06;;;;;;;10.02;4.00;;;16.80;99.90;;;;;;5018589;28;20041;-88
2023/07/31 07:08:32;;;;;;;9.65;3.83;;;;;;;;;;4992030;28;20156;-88
2023/07/31 07:10:58;;;;;;;10.23;4.25;;;;;;;;;;5020855;28;20037;-88
2023/07/31 07:13:24;;;;;;;8.55;3.00;;;;;;;;;;4984102;28;20049;-87
2023/07/31 07:15:51;;;;;;;8.30;2.97;;;;;;;;;;5001256;28;20067;-88
2023/07/31 07:18:17;;;;;;;8.82;2.75;;;;;;;;;;5004571;28;20056;-87
2023/07/31 07:20:47;;;;;;;9.43;3.22;;;16.80;99.90;;;;;;4987128;28;20088;-88
2023/07/31 07:23:13;;;;;;;5.97;2.63;;;;;;;;;;5002205;28;20052;-87
2023/07/31 07:25:39;;;;;;;10.18;2.47;;;;;;;;;;4979881;28;20041;-88
2023/07/31 07:28:05;;;;;;;7.05;3.25;;;;;;;;;;4989465;28;20050;-87
2023/07/31 07:30:31;;;;;;;5.22;2.38;;;;;;;;;;5024836;28;20099;-87
2023/07/31 07:32:57;;;;;;;6.10;2.65;;;;;;;;;;5001052;28;20045;-88
2023/07/31 07:35:23;;;;;;;4.10;2.53;;;;;;;;;;4997096;28;20045;-87
2023/07/31 07:37:50;;;;;;;8.52;2.45;;;;;;;;;;5005305;28;20563;-87
2023/07/31 07:40:16;;;;;;;7.85;2.75;;;;;;;;;;4989971;28;20038;-88
2023/07/31 07:42:42;;;;;;;5.88;1.95;;;;;;;;;;5005618;28;20045;-87
2023/07/31 07:45:08;;;;;;;4.68;2.30;;;;;;;;;;4997812;28;20454;-88
2023/07/31 07:47:34;;;;;;;4.50;1.90;;;;;;;;;;4986519;28;20052;-88
2023/07/31 07:50:00;;;;;;;5.20;2.38;;;;;;;;;;5003010;28;20408;-88
2023/07/31 07:52:26;;;;;;;5.80;2.10;;;;;;;;;;5002186;28;20399;-88
2023/07/31 07:54:52;;;;;;;6.05;2.17;;;16.80;99.90;;;;;;4995904;28;20037;-88
2023/07/31 07:57:18;;;;;;;4.32;1.77;;;;;;;;;;5007329;28;20065;-87
2023/07/31 07:59:44;;;;;;;3.40;1.63;;;;;;;;;;5008083;28;20041;-88
2023/07/31 08:02:10;;;;;;;5.47;1.70;;;;;;;;;;5005420;28;20088;-87
2023/07/31 08:04:36;;;;;;;5.38;1.58;;;;;;;;;;5020199;28;20049;-87
2023/07/31 08:07:02;;;;;;;3.17;1.70;;;;;;;;;;4978218;28;20045;-88
2023/07/31 08:09:28;;;;;;;3.42;1.67;;;;;;;;;;5004129;28;20057;-88
2023/07/31 08:11:57;;;;;;;3.17;1.63;;;;;;;;;;5008196;28;20431;-87
2023/07/31 08:14:23;;;;;;;7.22;2.10;;;;;;;;;;5007893;28;20037;-88
2023/07/31 08:16:48;;;;;;;5.68;1.73;;;;;;;;;;4985577;28;20041;-88
2023/07/31 08:19:14;;;;;;;3.38;1.38;;;;;;;;;;5008468;28;20083;-87
2023/07/31 08:21:40;;;;;;;3.20;1.70;;;;;;;;;;5004493;28;20087;-87
2023/07/31 08:24:08;;;;;;;3.25;1.85;;;;;;;;;;4997965;28;20034;-87
2023/07/31 08:26:34;;;;;;;3.28;1.58;;;;;;;;;;5004972;28;20091;-87
2023/07/31 08:29:00;;;;;;;2.80;1.27;;;;;;;;;;4982936;28;20045;-88
2023/07/31 08:31:26;;;;;;;5.18;2.05;;;;;;;;;;4983021;28;20474;-88
2023/07/31 08:33:52;;;;;;;2.35;1.60;;;;;;;;;;4999820;28;20037;-88
2023/07/31 08:36:18;;;;;;;1.83;1.23;;;;;;;;;;5003016;28;20108;-87
2023/07/31 08:38:45;;;;;;;1.50;1.30;;;17.00;99.90;;;;;;5002637;28;20128;-88
2023/07/31 08:41:13;;;;;;;3.35;1.23;;;;;;;;;;5004900;28;20041;-88
2023/07/31 08:43:39;;;;;;;3.00;1.25;;;;;;;;;;5004590;28;20354;-88
2023/07/31 08:46:05;;;;;;;3.38;1.30;;;;;;;;;;5005818;28;20048;-88
2023/07/31 08:48:32;;;;;;;2.35;1.23;;;17.30;99.90;;;;;;4987865;28;20045;-88
2023/07/31 08:50:58;;;;;;;2.00;1.30;;;;;;;;;;5003580;28;20048;-88
2023/07/31 08:53:24;;;;;;;2.50;1.25;;;;;;;;;;5003221;28;20033;-89
2023/07/31 08:55:50;;;;;;;2.17;1.25;;;;;;;;;;5005672;28;20049;-88
2023/07/31 08:58:18;;;;;;;1.67;1.00;;;17.30;99.90;;;;;;5004183;28;20613;-88
2023/07/31 09:00:46;;;;;;;2.17;1.10;;;17.50;99.90;;;;;;4991192;28;20117;-88
2023/07/31 09:03:17;;;;;;;2.58;0.80;;;17.60;99.90;;;;;;5006784;28;20037;-89
2023/07/31 09:05:44;;;;;;;1.60;1.05;;;17.40;99.90;;;;;;5007636;28;20056;-88
2023/07/31 09:08:11;;;;;;;1.83;1.20;;;17.40;99.90;;;;;;4997237;28;20142;-88
2023/07/31 09:10:45;;;;;;;1.33;0.80;;;17.50;99.90;;;;;;5006752;28;20053;-88
2023/07/31 09:13:11;;;;;;;2.20;0.60;;;;;;;;;;4994593;28;20056;-88
2023/07/31 09:15:38;;;;;;;1.20;0.70;;;;;;;;;;4998376;28;20054;-88
2023/07/31 09:18:05;;;;;;;1.27;0.68;;;17.30;99.90;;;;;;5023185;28;20041;-88
2023/07/31 09:20:34;;;;;;;1.48;0.60;;;;;;;;;;4987355;28;20052;-87
2023/07/31 09:23:09;;;;;;;1.00;0.55;;;17.40;99.90;;;;;;5019391;28;20444;-88
2023/07/31 09:25:36;;;;;;;1.67;0.77;;;;;;;;;;4988023;28;20056;-87
2023/07/31 09:28:04;;;;;;;1.40;0.60;;;17.30;99.90;;;;;;4993860;28;20454;-88
2023/07/31 09:30:30;;;;;;;1.20;0.68;;;;;;;;;;5000380;28;20120;-88
2023/07/31 09:33:06;;;;;;;0.85;0.55;;;17.40;99.90;;;;;;4985255;28;20192;-89
2023/07/31 09:35:33;;;;;;;1.67;0.60;;;17.40;99.90;;;;;;4981640;28;20624;-87
2023/07/31 09:38:11;;;;;;;1.10;0.60;;;17.70;99.90;;;;;;4997877;28;20064;-87
2023/07/31 09:40:41;;;;;;;0.93;0.40;;;17.70;99.90;;;;;;4998044;28;20042;-86
2023/07/31 09:43:10;;;;;;;1.27;0.60;;;17.70;99.90;;;;;;5003284;28;20420;-86
2023/07/31 09:45:40;;;;;;;0.77;0.50;;;17.90;99.90;;;;;;4999441;28;20085;-88
2023/07/31 09:48:17;;;;;;;1.48;0.70;;;17.70;99.90;;;;;;5011332;28;20044;-87
2023/07/31 09:50:45;;;;;;;1.42;0.40;;;18.10;99.90;;;;;;4985941;28;20045;-89
2023/07/31 09:53:11;;;;;;;0.80;0.50;;;;;;;;;;5015023;28;20593;-88
2023/07/31 09:55:38;;;;;;;1.00;0.60;;;18.00;99.90;;;;;;5001592;28;20503;-87
2023/07/31 09:58:08;;;;;;;0.60;0.43;;;17.90;99.90;;;;;;5022138;28;20060;-87
2023/07/31 10:00:35;;;;;;;0.35;0.30;;;;;;;;;;4999389;28;20099;-89
2023/07/31 10:03:04;;;;;;;0.52;0.38;;;18.30;99.90;;;;;;4998919;28;20394;-88
2023/07/31 10:05:50;;;;;;;0.40;0.30;;;18.20;99.90;;;;;;5008997;28;20088;-88
2023/07/31 10:08:19;;;;;;;0.38;0.30;;;18.10;99.90;;;;;;4991563;28;20049;-87
2023/07/31 10:10:46;;;;;;;1.42;0.20;;;;;;;;;;4985168;28;20091;-87
2023/07/31 10:13:13;;;;;;;0.63;0.30;;;18.00;99.90;;;;;;4997934;28;20038;-87
2023/07/31 10:15:41;;;;;;;0.50;0.30;;;;;;;;;;5021407;28;20522;-87
2023/07/31 10:18:07;;;;;;;0.40;0.30;;;;;;;;;;5020107;28;20107;-87
2023/07/31 10:20:33;;;;;;;0.40;0.30;;;18.30;99.90;;;;;;5003019;28;20045;-87
2023/07/31 10:22:59;;;;;;;1.23;0.40;;;;;;;;;;4995947;28;20037;-87
2023/07/31 10:25:26;;;;;;;0.60;0.30;;;18.40;99.90;;;;;;4987258;28;20041;-88
2023/07/31 10:27:53;;;;;;;0.73;0.43;;;18.20;99.90;;;;;;4991651;28;20040;-87
2023/07/31 10:30:24;;;;;;;1.40;0.50;;;18.30;99.90;;;;;;5004610;28;20041;-87
2023/07/31 10:32:52;;;;;;;0.65;0.40;;;18.40;99.90;;;;;;4987552;28;20045;-87
2023/07/31 10:35:18;;;;;;;1.27;0.80;;;18.50;99.90;;;;;;4984372;28;20042;-88
2023/07/31 10:37:44;;;;;;;2.75;0.80;;;;;;;;;;4988328;28;20034;-87
2023/07/31 10:40:17;;;;;;;2.60;1.00;;;18.50;99.90;;;;;;5009261;28;20038;-87
2023/07/31 10:42:52;;;;;;;3.90;1.27;;;18.70;99.90;;;;;;5019821;28;20041;-87
2023/07/31 10:45:38;;;;;;;2.20;1.15;;;18.80;99.90;;;;;;4998342;28;20041;-87
2023/07/31 10:48:17;;;;;;;4.20;0.85;;;18.70;99.90;;;;;;5019958;28;20060;-87
2023/07/31 10:50:51;;;;;;;3.78;0.77;;;18.70;99.90;;;;;;5022693;28;20100;-87
2023/07/31 10:53:31;;;;;;;1.63;0.88;;;18.80;99.90;;;;;;5005582;28;20048;-87
2023/07/31 10:56:07;;;;;;;1.38;0.50;;;18.80;99.90;;;;;;5021220;28;20039;-87
2023/07/31 10:58:34;;;;;;;2.63;0.80;;;;;;;;;;5003149;28;20108;-87
2023/07/31 11:01:05;;;;;;;1.90;1.20;;;18.90;99.90;;;;;;4999832;28;20042;-87
2023/07/31 11:03:44;;;;;;;3.70;0.80;;;18.80;99.90;;;;;;5001596;28;20087;-88
2023/07/31 11:06:10;;;;;;;3.08;1.20;;;;;;;;;;5004081;28;20049;-88
2023/07/31 11:08:43;;;;;;;3.10;0.82;;;18.80;99.90;;;;;;5003728;28;20089;-88
2023/07/31 11:11:13;;;;;;;2.55;0.50;;;18.80;99.90;;;;;;4985748;28;20046;-88
2023/07/31 11:13:50;;;;;;;2.13;0.43;;;18.90;99.90;;;;;;5008300;28;20049;-88
2023/07/31 11:16:17;;;;;;;3.75;0.50;;;18.80;99.90;;;;;;5009437;28;20072;-89
2023/07/31 11:18:44;;;;;;;0.70;0.30;;;18.60;99.90;;;;;;4984575;28;20514;-88
2023/07/31 11:21:23;;;;;;;0.82;0.40;;;18.60;99.90;;;;;;5024213;28;20041;-89
2023/07/31 11:23:51;;;;;;;2.08;0.63;;;18.80;99.90;;;;;;5022419;28;20037;-88
2023/07/31 11:26:17;;;;;;;3.00;0.50;;;19.00;99.90;;;;;;5006051;28;20077;-88
2023/07/31 11:28:44;;;;;;;1.85;0.50;;;;;;;;;;4999125;28;20129;-89
2023/07/31 11:31:10;;;;;;;1.48;0.65;;;18.90;99.90;;;;;;5003011;28;20467;-89
2023/07/31 11:33:36;;;;;;;2.63;0.68;;;18.70;99.90;;;;;;4981682;28;20381;-89
2023/07/31 11:36:02;;;;;;;0.80;0.40;;;18.70;99.90;;;;;;4981602;28;20038;-89
2023/07/31 11:38:30;;;;;;;2.72;0.73;;;18.60;99.90;;;;;;4989808;28;20066;-89
2023/07/31 11:41:04;;;;;;;2.10;0.70;;;18.70;99.90;;;;;;4982439;28;20049;-89
2023/07/31 11:43:34;;;;;;;1.65;0.60;;;18.60;99.90;;;;;;4986835;28;20041;-88
2023/07/31 11:46:05;;;;;;;6.07;0.77;;;18.60;99.90;;;;;;5005238;28;20089;-88
2023/07/31 11:48:36;;;;;;;3.95;1.00;;;18.70;99.90;;;;;;4988396;28;20041;-89
2023/07/31 11:51:08;;;;;;;1.88;0.65;;;18.60;99.90;;;;;;5001108;28;20038;-90
2023/07/31 11:53:34;;;;;;;3.53;0.90;;;;;;;;;;4982513;28;20056;-89
2023/07/31 11:56:02;;;;;;;1.10;0.73;;;18.50;99.90;;;;;;4995687;28;20033;-89
2023/07/31 11:58:30;;;;;;;3.35;1.50;;;18.50;99.90;;;;;;5004730;28;20056;-88
2023/07/31 12:00:57;;;;;;;1.77;0.82;;;18.50;99.90;;;;;;4988653;28;20052;-89
2023/07/31 12:03:23;;;;;;;4.28;1.25;;;;;;;;;;4989112;28;20045;-89
2023/07/31 12:05:49;;;;;;;3.55;1.30;;;;;;;;;;4981535;28;20041;-89
2023/07/31 12:08:16;;;;;;;2.53;1.40;;;;;;;;;;4982863;28;20141;-89
2023/07/31 12:10:42;;;;;;;3.45;1.50;;;;;;;;;;5002675;28;20053;-89
2023/07/31 12:13:19;;;;;;;2.50;1.40;;;18.60;99.90;;;;;;4984247;28;20049;-88
2023/07/31 12:15:45;;;;;;;4.72;1.35;;;18.60;99.90;;;;;;4983509;28;20041;-89
2023/07/31 12:18:14;;;;;;;4.00;1.13;;;18.80;99.90;;;;;;5017278;28;20042;-89
2023/07/31 12:20:47;;;;;;;5.93;0.90;;;18.80;99.90;;;;;;5005309;28;20045;-89
2023/07/31 12:23:17;;;;;;;3.17;1.60;;;18.80;99.90;;;;;;4992124;28;20041;-89
2023/07/31 12:25:43;;;;;;;2.75;1.17;;;;;;;;;;5023091;28;20049;-89
2023/07/31 12:28:11;;;;;;;5.95;1.17;;;18.90;99.90;;;;;;4992341;28;20045;-88
2023/07/31 12:30:38;;;;;;;2.90;0.75;;;19.10;99.90;;;;;;5001263;28;20415;-89
2023/07/31 12:33:13;;;;;;;2.15;1.63;;;18.80;99.90;;;;;;5007025;28;20140;-88
2023/07/31 12:35:44;;;;;;;4.10;0.93;;;18.70;99.90;;;;;;4990280;28;20038;-89
2023/07/31 12:38:12;;;;;;;3.85;1.40;;;18.80;99.90;;;;;;4986902;28;20037;-89
2023/07/31 12:40:39;;;;;;;4.50;1.50;;;18.70;99.90;;;;;;5000700;28;20040;-89
2023/07/31 12:43:05;;;;;;;7.07;1.60;;;;;;;;;;5003484;28;20095;-89
2023/07/31 12:45:31;;;;;;;5.00;1.67;;;;;;;;;;4999642;28;20045;-89
2023/07/31 12:47:58;;;;;;;7.95;2.30;;;18.80;99.90;;;;;;5017208;28;20055;-89
2023/07/31 12:50:23;;;;;;;8.60;2.13;;;19.20;99.90;;;;;;4996335;28;20041;-89
2023/07/31 12:52:49;;;;;;;7.45;2.05;;;19.20;99.90;;;;;;5002023;28;20104;-89
2023/07/31 12:55:16;;;;;;;6.13;2.40;;;;;;;;;;4987913;28;20373;-89
2023/07/31 12:57:41;;;;;;;6.57;2.40;;;19.30;99.90;;;;;;5003901;28;20415;-89
2023/07/31 13:00:08;;;;;;;9.68;2.33;;;19.40;99.90;;;;;;4996502;28;20046;-89
2023/07/31 13:02:33;;;;;;;3.03;1.90;;;19.40;99.90;;;;;;4984271;28;20049;-89
2023/07/31 13:04:59;;;;;;;9.45;2.78;;;19.50;99.90;;;;;;5004194;28;20041;-89
2023/07/31 13:07:25;;;;;;;10.23;2.22;;;;;;;;;;5007000;28;20389;-89
2023/07/31 13:09:51;;;;;;;8.48;2.60;;;;;;;;;;5001694;28;20053;-89
2023/07/31 13:12:17;;;;;;;9.30;2.50;;;19.30;99.90;;;;;;4988298;28;20131;-88
2023/07/31 13:14:43;;;;;;;7.65;2.22;;;;;;;;;;5008252;28;20128;-88
2023/07/31 13:17:08;;;;;;;9.65;2.05;;;19.40;99.90;;;;;;4988881;28;20045;-88
2023/07/31 13:19:34;;;;;;;7.80;2.35;;;19.30;99.90;;;;;;5000397;28;20369;-89
2023/07/31 13:22:00;;;;;;;9.73;3.05;;;19.40;99.90;;;;;;5020182;28;20442;-88
2023/07/31 13:24:25;;;;;;;9.55;3.42;;;19.20;99.90;;;;;;5021545;28;20048;-89
2023/07/31 13:26:51;;;;;;;12.60;3.47;;;19.20;99.90;;;;;;5021926;28;20084;-88
2023/07/31 13:29:16;;;;;;;7.85;2.38;;;19.50;99.90;;;;;;5004063;28;20597;-88
2023/07/31 13:31:42;;;;;;;12.73;3.35;;;19.40;99.90;;;;;;4983319;28;20511;-90
2023/07/31 13:34:07;;;;;;;12.55;3.30;;;19.40;99.90;;;;;;4986359;28;20518;-89
2023/07/31 13:36:34;;;;;;;10.93;2.78;;;;;;;;;;5011539;28;20041;-88
2023/07/31 13:39:00;;;;;;;13.93;3.17;;;19.30;99.90;;;;;;4997539;28;20073;-89
2023/07/31 13:41:26;;;;;;;10.00;2.53;;;19.40;99.90;;;;;;4991109;28;20265;-90
2023/07/31 13:43:52;;;;;;;9.18;2.50;;;;;;;;;;5004707;28;20042;-89
2023/07/31 13:46:18;;;;;;;9.93;2.72;;;;;;;;;;5002943;28;20111;-88
2023/07/31 13:48:43;;;;;;;9.73;2.33;;;19.50;99.90;;;;;;4987094;28;20042;-88
2023/07/31 13:51:09;;;;;;;6.35;2.33;;;19.50;99.90;;;;;;5007295;28;20503;-88
2023/07/31 13:53:35;;;;;;;11.65;2.72;;;;;;;;;;5008640;28;20392;-88